Time;durP1;ratioP1;P1;durP2;ratioP2;P2;SDS_P1;SDS_P2;PMS_P1;PMS_P2;Temp;Humidity;BMP_temperature;BMP_pressure;BME280_temperature;BME280_humidity;BME280_pressure;Samples;Min_cycle;Max_cycle;Signal;HPM_P1;HPM_P2
2022/10/23 00:00:46;;;;;;;;;;;;;;;;;;5069238;28;20028;-69
2022/10/23 00:03:12;;;;;;;38.95;9.80;;;;;;;;;;5061176;28;19916;-69
2022/10/23 00:05:39;;;;;;;;;;;;;;;;;;5068919;28;20127;-69
2022/10/23 00:08:05;;;;;;;33.95;10.43;;;;;;;;;;5068237;28;19915;-69
2022/10/23 00:10:39;;;;;;;42.60;10.65;;;;;;;;;;5068632;28;20592;-70
2022/10/23 00:13:06;;;;;;;37.13;9.73;;;;;;;;;;5054697;28;20055;-70
2022/10/23 00:15:31;;;;;;;;;;;;;;;;;;5070951;28;20035;-67
2022/10/23 00:17:58;;;;;;;33.67;9.55;;;;;;;;;;5062848;28;21971;-68
2022/10/23 00:20:24;;;;;;;;;;;;;;;;;;5068812;28;20024;-68
2022/10/23 00:22:50;;;;;;;36.93;9.90;;;;;;;;;;5054715;28;19989;-69
2022/10/23 00:25:17;;;;;;;36.60;10.13;;;;;;;;;;5066288;27;20542;-68
2022/10/23 00:27:43;;;;;;;39.78;10.13;;;;;;;;;;5064080;28;20040;-68
2022/10/23 00:30:10;;;;;;;36.78;10.25;;;;;;;;;;5067978;28;20110;-69
2022/10/23 00:32:36;;;;;;;42.05;10.48;;;;;;;;;;5063778;28;20028;-69
2022/10/23 00:35:02;;;;;;;;;;;;;;;;;;5063357;28;20060;-69
2022/10/23 00:37:28;;;;;;;38.10;9.70;;;;;;;;;;5063415;28;20054;-68
2022/10/23 00:39:54;;;;;;;;;;;;;;;;;;5070406;28;20467;-69
2022/10/23 00:42:20;;;;;;;38.17;10.63;;;;;;;;;;5066115;28;19922;-68
2022/10/23 00:44:47;;;;;;;39.60;11.20;;;;;;;;;;5062233;28;20075;-68
2022/10/23 00:47:13;;;;;;;;;;;;;;;;;;5070446;28;20161;-69
2022/10/23 00:49:39;;;;;;;44.53;11.30;;;;;;;;;;5062710;28;19911;-67
2022/10/23 00:52:07;;;;;;;35.03;11.60;;;;;;;;;;5067977;28;20031;-67
2022/10/23 00:54:35;;;;;;;35.35;11.02;;;;;;;;;;5068754;28;20024;-67
2022/10/23 00:57:03;;;;;;;34.58;11.65;;;;;;;;;;5062805;28;20926;-66
2022/10/23 00:59:29;;;;;;;42.60;10.95;;;;;;;;;;5064992;28;20526;-66
2022/10/23 01:01:56;;;;;;;35.97;11.10;;;;;;;;;;5064339;28;20166;-67
2022/10/23 01:04:21;;;;;;;;;;;;;;;;;;5065759;28;20478;-66
2022/10/23 01:07:06;;;;;;;35.38;11.80;;;;;;;;;;5061518;28;19919;-67
2022/10/23 01:09:32;;;;;;;34.28;11.30;;;;;;;;;;5063629;28;20029;-68
2022/10/23 01:12:17;;;;;;;35.13;10.75;;;;;;;;;;5063764;28;20160;-67
2022/10/23 01:14:50;;;;;;;39.38;11.57;;;;;;;;;;5064215;28;20794;-69
2022/10/23 01:17:23;;;;;;;34.13;10.90;;;;;;;;;;5069388;28;20834;-68
2022/10/23 01:20:08;;;;;;;37.03;11.77;;;;;;;;;;5068171;28;20025;-68
2022/10/23 01:22:34;;;;;;;36.30;11.43;;;;;;;;;;5059942;28;20121;-68
2022/10/23 01:25:02;;;;;;;31.00;10.55;;;;;;;;;;5060911;28;20441;-68
2022/10/23 01:27:55;;;;;;;36.78;11.55;;;;;;;;;;5062804;28;20028;-68
2022/10/23 01:30:21;;;;;;;37.05;12.02;;;;;;;;;;5062856;28;20032;-68
2022/10/23 01:32:47;;;;;;;;;;;;;;;;;;5063485;28;20147;-67
2022/10/23 01:35:19;;;;;;;31.80;10.73;;;;;;;;;;5070255;28;19911;-67
2022/10/23 01:37:47;;;;;;;37.08;11.07;;;;;;;;;;5065608;28;20138;-68
2022/10/23 01:40:22;;;;;;;30.05;10.90;;;;;;;;;;5063614;28;20336;-68
2022/10/23 01:42:52;;;;;;;43.60;11.00;;;;;;;;;;5064301;28;20040;-69
2022/10/23 01:45:25;;;;;;;32.33;10.80;;;;;;;;;;5063547;28;20048;-68
2022/10/23 01:47:53;;;;;;;32.50;11.23;;;;;;;;;;5063628;28;20516;-69
2022/10/23 01:50:20;;;;;;;30.23;10.70;;;;;;;;;;5063916;28;20094;-68
2022/10/23 01:52:46;;;;;;;37.65;11.85;;;;;;;;;;5063034;28;20024;-69
2022/10/23 01:55:12;;;;;;;;;;;;;;;;;;5070540;28;20036;-66
2022/10/23 01:57:39;;;;;;;39.75;11.73;;;;;;;;;;5078106;28;19915;-67
2022/10/23 02:00:08;;;;;;;29.98;10.65;;;;;;;;;;5064804;28;20971;-68
2022/10/23 02:02:35;;;;;;;32.10;10.98;;;;;;;;;;5073076;28;20367;-67
2022/10/23 02:05:06;;;;;;;29.75;9.93;;;;;;;;;;5065573;28;20077;-67
2022/10/23 02:07:32;;;;;;;38.30;10.82;;;;;;;;;;5066404;28;20051;-67
2022/10/23 02:09:58;;;;;;;30.88;9.98;;;;;;;;;;5061266;28;21780;-67
2022/10/23 02:12:40;;;;;;;26.70;9.02;;;;;;;;;;5074292;28;20068;-69
2022/10/23 02:15:13;;;;;;;38.08;9.20;;;;;;;;;;5066884;28;20103;-68
2022/10/23 02:17:41;;;;;;;32.80;8.63;;;;;;;;;;5072380;28;20444;-67
2022/10/23 02:20:20;;;;;;;31.17;8.77;;;;;;;;;;5078519;28;20032;-68
2022/10/23 02:22:55;;;;;;;29.10;8.70;;;;;;;;;;5070610;28;20154;-67
2022/10/23 02:25:29;;;;;;;29.67;7.43;;;;;;;;;;5068506;28;20032;-69
2022/10/23 02:27:57;;;;;;;35.63;7.32;;;;;;;;;;5063645;28;20035;-68
2022/10/23 02:30:23;;;;;;;31.70;7.32;;;;;;;;;;5064718;28;20024;-68
2022/10/23 02:32:49;;;;;;;;;;;;;;;;;;5064821;28;20102;-67
2022/10/23 02:35:15;;;;;;;31.13;6.95;;;;;;;;;;5072448;28;19995;-67
2022/10/23 02:37:41;;;;;;;31.50;7.05;;;;;;;;;;5061523;28;20028;-67
2022/10/23 02:40:07;;;;;;;;;;;;;;;;;;5073835;28;20064;-68
2022/10/23 02:42:44;;;;;;;30.23;6.63;;;;;;;;;;5066726;28;20023;-68
2022/10/23 02:45:25;;;;;;;48.13;7.85;;;;;;;;;;5060731;28;20185;-68
2022/10/23 02:47:57;;;;;;;28.50;6.45;;;;;;;;;;5062890;28;20066;-68
2022/10/23 02:50:26;;;;;;;26.65;6.22;;;;;;;;;;5063780;28;20619;-68
2022/10/23 02:52:59;;;;;;;26.75;5.95;;;;;;;;;;5068751;28;20491;-67
2022/10/23 02:55:31;;;;;;;32.42;6.55;;;;;;;;;;5067651;28;20074;-67
2022/10/23 02:58:16;;;;;;;25.67;5.78;;;;;;;;;;5064524;28;20044;-67
2022/10/23 03:00:48;;;;;;;33.00;7.05;;;;;;;;;;5059849;28;20029;-68
2022/10/23 03:03:16;;;;;;;30.48;6.57;;;;;;;;;;5065206;28;20230;-68
2022/10/23 03:05:43;;;;;;;43.47;7.05;;;;;;;;;;5062842;28;20339;-68
2022/10/23 03:08:10;;;;;;;30.95;6.05;;;;;;;;;;5065842;28;20035;-69
2022/10/23 03:10:36;;;;;;;29.05;6.63;;;;;;;;;;5063186;28;20044;-67
2022/10/23 03:13:02;;;;;;;;;;;;;;;;;;5066028;28;20070;-68
2022/10/23 03:15:28;;;;;;;30.20;6.43;;;;;;;;;;5062635;28;20004;-69
2022/10/23 03:17:54;;;;;;;;;;;;;;;;;;5062813;28;20442;-68
2022/10/23 03:20:20;;;;;;;31.13;6.22;;;;;;;;;;5067134;28;19923;-68
2022/10/23 03:22:46;;;;;;;30.55;6.13;;;;;;;;;;5066867;28;20035;-68
2022/10/23 03:25:12;;;;;;;;;;;;;;;;;;5069293;28;20024;-68
2022/10/23 03:27:38;;;;;;;35.22;6.60;;;;;;;;;;5066462;28;20615;-68
2022/10/23 03:30:05;;;;;;;30.00;6.55;;;;;;;;;;5068007;28;20419;-68
2022/10/23 03:32:31;;;;;;;28.13;6.20;;;;;;;;;;5070643;28;20059;-68
2022/10/23 03:34:57;;;;;;;30.70;6.00;;;;;;;;;;5067856;28;20504;-68
2022/10/23 03:37:23;;;;;;;;;;;;;;;;;;5068422;28;20131;-68
2022/10/23 03:39:49;;;;;;;36.10;6.93;;;;;;;;;;5067675;28;19984;-67
2022/10/23 03:42:15;;;;;;;;;;;;;;;;;;5068162;28;20059;-68
2022/10/23 03:44:41;;;;;;;33.22;5.90;;;;;;;;;;5062282;28;20326;-67
2022/10/23 03:47:10;;;;;;;27.92;5.97;;;;;;;;;;5066821;28;20085;-69
2022/10/23 03:49:36;;;;;;;36.67;6.00;;;;;;;;;;5067464;28;20409;-68
2022/10/23 03:52:05;;;;;;;;;;;;;;;;;;5070645;28;20082;-70
2022/10/23 03:54:32;;;;;;;34.15;6.15;;;;;;;;;;5071129;28;19912;-69
2022/10/23 03:56:58;;;;;;;31.48;6.28;;;;;;;;;;5061151;28;20547;-67
2022/10/23 03:59:24;;;;;;;29.10;5.82;;;;;;;;;;5066227;28;20059;-69
2022/10/23 04:01:50;;;;;;;;;;;;;;;;;;5057998;28;20836;-67
2022/10/23 04:04:17;;;;;;;31.88;5.25;;;;;;;;;;5063765;28;19920;-67
2022/10/23 04:06:43;;;;;;;31.42;6.28;;;;;;;;;;5063517;28;20028;-67
2022/10/23 04:09:09;;;;;;;;;;;;;;;;;;5063015;28;20024;-69
2022/10/23 04:11:35;;;;;;;28.10;5.70;;;;;;;;;;5067477;28;20024;-69
2022/10/23 04:14:01;;;;;;;25.65;5.65;;;;;;;;;;5061517;28;20700;-68
2022/10/23 04:16:27;;;;;;;34.15;6.13;;;;;;;;;;5058548;28;20665;-69
2022/10/23 04:18:53;;;;;;;28.98;6.03;;;;;;;;;;5058943;28;20371;-69
2022/10/23 04:21:19;;;;;;;;;;;;;;;;;;5061485;28;20032;-67
2022/10/23 04:23:45;;;;;;;26.63;6.20;;;;;;;;;;5059898;28;19993;-69
2022/10/23 04:26:12;;;;;;;31.92;5.47;;;;;;;;;;5057946;28;20051;-67
2022/10/23 04:28:38;;;;;;;26.05;5.55;;;;;;;;;;5065588;28;20027;-68
2022/10/23 04:31:04;;;;;;;;;;;;;;;;;;5063024;28;20828;-68
2022/10/23 04:33:30;;;;;;;26.20;5.15;;;;;;;;;;5062267;28;19912;-69
2022/10/23 04:35:56;;;;;;;;;;;;;;;;;;5055777;28;20111;-67
2022/10/23 04:38:22;;;;;;;28.95;5.45;;;;;;;;;;5057047;28;19912;-68
2022/10/23 04:40:48;;;;;;;25.25;4.20;;;;;;;;;;5061619;28;20131;-67
2022/10/23 04:43:14;;;;;;;;;;;;;;;;;;5065514;28;20117;-69
2022/10/23 04:45:40;;;;;;;24.92;5.40;;;;;;;;;;5069108;28;19912;-68
2022/10/23 04:48:06;;;;;;;27.85;5.32;;;;;;;;;;5071101;28;20042;-68
2022/10/23 04:50:32;;;;;;;;;;;;;;;;;;5066615;28;20400;-69
2022/10/23 04:52:58;;;;;;;25.88;5.30;;;;;;;;;;5068805;28;21143;-69
2022/10/23 04:55:24;;;;;;;25.50;5.65;;;;;;;;;;5066711;28;20256;-68
2022/10/23 04:57:51;;;;;;;24.88;5.07;;;;;;;;;;5069028;28;20028;-69
2022/10/23 05:00:17;;;;;;;29.08;4.93;;;;;;;;;;5068231;28;20034;-69
2022/10/23 05:02:43;;;;;;;25.15;4.28;;;;;;;;;;5063664;28;20464;-69
2022/10/23 05:05:09;;;;;;;20.55;5.32;;;;;;;;;;5077452;28;20042;-69
2022/10/23 05:07:35;;;;;;;;;;;;;;;;;;5067253;28;20452;-69
2022/10/23 05:10:02;;;;;;;29.38;5.22;;;;;;;;;;5067036;28;19911;-67
2022/10/23 05:12:28;;;;;;;28.80;5.35;;;;;;;;;;5063708;28;20334;-69
2022/10/23 05:14:54;;;;;;;21.92;5.05;;;;;;;;;;5062371;28;20249;-70
2022/10/23 05:17:23;;;;;;;27.73;4.72;;;;;;;;;;5069308;28;20109;-69
2022/10/23 05:19:52;;;;;;;29.77;5.60;;;;;;;;;;5067554;28;20454;-68
2022/10/23 05:22:19;;;;;;;25.65;5.38;;;;;;;;;;5070640;28;20264;-69
2022/10/23 05:24:45;;;;;;;20.67;4.47;;;;;;;;;;5069190;28;20082;-67
2022/10/23 05:27:12;;;;;;;26.98;5.13;;;;;;;;;;5071336;28;20039;-68
2022/10/23 05:29:38;;;;;;;24.55;4.95;;;;;;;;;;5067700;28;20098;-69
2022/10/23 05:32:06;;;;;;;31.05;5.25;;;;;;;;;;5062905;28;20039;-67
2022/10/23 05:34:34;;;;;;;28.45;5.65;;;;;;;;;;5065276;28;20061;-69
2022/10/23 05:37:00;;;;;;;22.00;4.50;;;;;;;;;;5057920;28;20024;-70
2022/10/23 05:39:26;;;;;;;27.05;4.88;;;;;;;;;;5068764;28;20036;-68
2022/10/23 05:41:53;;;;;;;34.05;5.50;;;;;;;;;;5067415;28;20040;-70
2022/10/23 05:44:20;;;;;;;27.38;4.70;;;;;;;;;;5069951;28;20071;-68
2022/10/23 05:46:46;;;;;;;20.17;4.30;;;;;;;;;;5066306;28;20050;-68
2022/10/23 05:49:12;;;;;;;27.88;4.90;;;;;;;;;;5065657;28;20119;-67
2022/10/23 05:51:42;;;;;;;22.33;5.63;;;;;;;;;;5067305;28;20086;-67
2022/10/23 05:54:09;;;;;;;23.05;4.78;;;;;;;;;;5070162;28;20070;-70
2022/10/23 05:56:36;;;;;;;23.75;5.15;;;;;;;;;;5075622;28;20405;-69
2022/10/23 05:59:02;;;;;;;20.55;4.97;;;;;;;;;;5066463;28;20028;-69
2022/10/23 06:01:28;;;;;;;27.50;5.10;;;;;;;;;;5066702;28;20689;-67
2022/10/23 06:03:54;;;;;;;25.48;5.22;;;;;;;;;;5070877;28;20031;-68
2022/10/23 06:06:20;;;;;;;26.23;5.40;;;;;;;;;;5065825;28;20032;-68
2022/10/23 06:08:47;;;;;;;25.05;5.18;;;;;;;;;;5063221;28;20028;-69
2022/10/23 06:11:14;;;;;;;21.20;5.15;;;;;;;;;;5068054;28;20161;-70
2022/10/23 06:13:44;;;;;;;23.08;4.72;;;;;;;;;;5058559;28;20051;-68
2022/10/23 06:16:14;;;;;;;21.48;4.40;;;;;;;;;;5070162;28;20536;-68
2022/10/23 06:18:40;;;;;;;24.17;4.90;;;;;;;;;;5063207;28;20312;-68
2022/10/23 06:21:07;;;;;;;26.58;5.70;;;;;;;;;;5067136;28;20039;-67
2022/10/23 06:23:34;;;;;;;21.33;4.47;;;;;;;;;;5072291;28;20422;-70
2022/10/23 06:26:00;;;;;;;17.13;4.70;;;;;;;;;;5061083;28;20119;-68
2022/10/23 06:28:26;;;;;;;22.00;5.05;;;;;;;;;;5070511;28;20040;-67
2022/10/23 06:30:52;;;;;;;;;;;;;;;;;;5059079;28;20024;-68
2022/10/23 06:33:18;;;;;;;27.55;4.97;;;;;;;;;;5068989;28;19919;-69
2022/10/23 06:35:44;;;;;;;21.85;5.13;;;;;;;;;;5058773;28;20423;-68
2022/10/23 06:38:10;;;;;;;24.00;5.55;;;;;;;;;;5071294;28;20019;-69
2022/10/23 06:40:37;;;;;;;22.90;4.60;;;;;;;;;;5065828;28;20050;-69
2022/10/23 06:43:04;;;;;;;24.00;5.50;;;;;;;;;;5060394;28;20051;-69
2022/10/23 06:45:32;;;;;;;24.92;5.18;;;;;;;;;;5043937;28;20445;-69
2022/10/23 06:47:59;;;;;;;25.08;5.35;;;;;;;;;;5039727;28;20028;-68
2022/10/23 06:50:25;;;;;;;26.85;5.47;;;;;;;;;;5043683;28;20906;-68
2022/10/23 06:52:51;;;;;;;31.05;6.28;;;;;;;;;;5044732;28;20404;-68
2022/10/23 06:55:18;;;;;;;23.23;5.40;;;;;;;;;;5042966;28;20051;-67
2022/10/23 06:57:44;;;;;;;30.75;5.63;;;;;;;;;;5041445;28;20035;-67
2022/10/23 07:00:10;;;;;;;27.38;5.95;;;;;;;;;;5047807;28;20032;-67
2022/10/23 07:02:37;;;;;;;19.35;5.22;;;;;;;;;;5043563;28;20080;-68
2022/10/23 07:05:03;;;;;;;26.20;5.30;;;;;;;;;;5035401;28;20033;-67
2022/10/23 07:07:30;;;;;;;23.70;5.05;;;;;;;;;;5042943;28;20442;-68
2022/10/23 07:09:56;;;;;;;28.73;6.03;;;;;;;;;;5040667;28;20033;-69
2022/10/23 07:12:22;;;;;;;23.52;5.97;;;;;;;;;;5048184;28;20445;-70
2022/10/23 07:14:48;;;;;;;28.17;5.47;;;;;;;;;;5039988;28;20032;-69
2022/10/23 07:17:14;;;;;;;;;;;;;;;;;;5053557;28;20549;-67
2022/10/23 07:19:40;;;;;;;24.63;5.70;;;;;;;;;;5043811;28;19912;-67
2022/10/23 07:22:06;;;;;;;32.88;5.75;;;;;;;;;;5047591;28;20103;-68
2022/10/23 07:24:35;;;;;;;26.73;5.70;;;;;;;;;;5049589;28;20222;-68
2022/10/23 07:27:02;;;;;;;35.55;6.28;;;;;;;;;;5045189;28;20390;-69
2022/10/23 07:29:28;;;;;;;26.77;5.07;;;;;;;;;;5045189;28;20319;-67
2022/10/23 07:31:54;;;;;;;26.52;6.60;;;;;;;;;;5043618;28;20346;-67
2022/10/23 07:34:21;;;;;;;29.13;6.18;;;;;;;;;;5048483;28;20081;-69
2022/10/23 07:36:47;;;;;;;30.77;7.15;;;;;;;;;;5045574;28;20139;-67
2022/10/23 07:39:13;;;;;;;27.63;7.28;;;;;;;;;;5045966;28;20487;-67
2022/10/23 07:41:39;;;;;;;29.98;6.85;;;;;;;;;;5046901;28;20078;-70
2022/10/23 07:44:05;;;;;;;27.63;6.57;;;;;;;;;;5051999;28;20101;-69
2022/10/23 07:46:31;;;;;;;29.10;6.28;;;;;;;;;;5064172;28;20033;-68
2022/10/23 07:48:57;;;;;;;30.75;6.90;;;;;;;;;;5062912;28;20257;-68
2022/10/23 07:51:24;;;;;;;28.08;6.15;;;;;;;;;;5059983;28;20028;-68
2022/10/23 07:53:50;;;;;;;25.75;6.65;;;;;;;;;;5062893;28;20634;-67
2022/10/23 07:56:17;;;;;;;22.50;6.40;;;;;;;;;;5066100;28;20539;-69
2022/10/23 07:58:43;;;;;;;32.95;7.22;;;;;;;;;;5066625;28;20077;-69
2022/10/23 08:01:15;;;;;;;33.42;7.60;;;;;;;;;;5067902;28;20024;-70
2022/10/23 08:03:41;;;;;;;33.80;7.68;;;;;;;;;;5067138;28;20525;-69
2022/10/23 08:06:07;;;;;;;27.70;8.15;;;;;;;;;;5070811;28;20031;-68
2022/10/23 08:08:33;;;;;;;24.60;6.75;;;;;;;;;;5069350;28;20481;-68
2022/10/23 08:11:00;;;;;;;28.95;6.63;;;;;;;;;;5063972;28;20029;-68
2022/10/23 08:13:26;;;;;;;34.85;6.90;;;;;;;;;;5070493;28;20029;-68
2022/10/23 08:15:52;;;;;;;23.73;6.13;;;;;;;;;;5067160;28;20050;-68
2022/10/23 08:18:18;;;;;;;28.38;6.80;;;;;;;;;;5074202;28;20319;-68
2022/10/23 08:20:46;;;;;;;30.45;6.40;;;;;;;;;;5061877;28;20103;-69
2022/10/23 08:23:13;;;;;;;32.00;6.78;;;;;;;;;;5072309;28;20035;-68
2022/10/23 08:25:39;;;;;;;34.05;6.80;;;;;;;;;;5067318;28;20383;-68
2022/10/23 08:28:06;;;;;;;28.55;7.43;;;;;;;;;;5074760;28;20024;-69
2022/10/23 08:30:32;;;;;;;32.42;6.07;;;;;;;;;;5065386;28;20028;-68
2022/10/23 08:32:59;;;;;;;26.45;6.78;;;;;;;;;;5071798;28;20032;-68
2022/10/23 08:35:25;;;;;;;30.90;6.22;;;;;;;;;;5076899;28;20379;-68
2022/10/23 08:37:51;;;;;;;26.20;6.05;;;;;;;;;;5065175;28;20040;-69
2022/10/23 08:40:19;;;;;;;24.40;6.00;;;;;;;;;;5071654;28;20040;-69
2022/10/23 08:42:47;;;;;;;28.95;5.95;;;;;;;;;;5066344;28;20043;-69
2022/10/23 08:45:24;;;;;;;24.95;6.10;;;;;;;;;;5069490;28;20139;-68
2022/10/23 08:47:54;;;;;;;33.63;6.47;;;;;;;;;;5060926;28;20032;-70
2022/10/23 08:50:31;;;;;;;24.23;6.43;;;;;;;;;;5066772;28;20032;-69
2022/10/23 08:53:02;;;;;;;29.27;6.88;;;;;;;;;;5069295;28;20039;-70
2022/10/23 08:55:51;;;;;;;27.80;6.43;;;;;;;;;;5070824;28;20061;-70
2022/10/23 08:58:22;;;;;;;28.73;6.63;;;;;;;;;;5062824;28;20110;-69
2022/10/23 09:00:49;;;;;;;26.08;5.97;;;;;;;;;;5059612;28;20027;-68
2022/10/23 09:03:15;;;;;;;26.33;5.82;;;;;;;;;;5064220;28;20036;-67
2022/10/23 09:06:06;;;;;;;30.10;6.18;;;;;;;;;;5062880;28;20066;-68
2022/10/23 09:08:44;;;;;;;30.52;5.88;;;;;;;;;;5066625;28;20062;-68
2022/10/23 09:11:15;;;;;;;27.60;5.93;;;;;;;;;;5062248;28;20032;-68
2022/10/23 09:13:50;;;;;;;23.67;5.25;;;;;;;;;;5060293;28;20154;-68
2022/10/23 09:16:36;;;;;;;26.23;5.38;;;;;;;;;;5062207;28;20086;-69
2022/10/23 09:19:08;;;;;;;29.63;5.53;;;;;;;;;;5060939;28;20305;-69
2022/10/23 09:21:35;;;;;;;27.63;5.80;;;;;;;;;;5068427;28;20032;-70
2022/10/23 09:24:01;;;;;;;26.83;5.65;;;;;;;;;;5065293;28;20443;-69
2022/10/23 09:26:27;;;;;;;22.58;4.95;;;;;;;;;;5065058;28;20218;-67
2022/10/23 09:28:57;;;;;;;25.45;5.63;;;;;;;;;;5057992;28;20481;-68
2022/10/23 09:31:23;;;;;;;22.15;5.53;;;;;;;;;;5059397;28;20051;-67
2022/10/23 09:34:00;;;;;;;29.05;5.57;;;;;;;;;;5052567;28;20032;-68
2022/10/23 09:36:28;;;;;;;23.00;5.28;;;;;;;;;;5058973;28;20542;-68
2022/10/23 09:38:55;;;;;;;22.80;5.20;;;;;;;;;;5050276;28;20039;-68
2022/10/23 09:41:21;;;;;;;28.08;5.38;;;;;;;;;;5059231;28;20062;-68
2022/10/23 09:43:58;;;;;;;26.83;5.38;;;;;;;;;;5055666;28;20048;-67
2022/10/23 09:46:25;;;;;;;22.15;4.65;;;;;;;;;;5062831;28;20024;-67
2022/10/23 09:48:59;;;;;;;24.70;5.28;;;;;;;;;;5057533;28;20135;-67
2022/10/23 09:51:26;;;;;;;23.23;5.15;;;;;;;;;;5062959;28;20028;-68
2022/10/23 09:53:53;;;;;;;25.58;5.07;;;;;;;;;;5057883;28;20741;-67
2022/10/23 09:56:22;;;;;;;26.08;4.95;;;;;;;;;;5061958;28;20028;-68
2022/10/23 09:58:54;;;;;;;24.20;5.05;;;;;;;;;;5059662;28;20167;-67
2022/10/23 10:01:31;;;;;;;23.98;5.45;;;;;;;;;;5061493;28;20182;-68
2022/10/23 10:03:57;;;;;;;22.33;4.95;;;;;;;;;;5058014;28;20115;-68
2022/10/23 10:06:26;;;;;;;22.50;4.97;;;;;;;;;;5061336;28;20028;-68
2022/10/23 10:09:12;;;;;;;27.05;5.35;;;;;;;;;;5056799;28;20052;-68
2022/10/23 10:11:51;;;;;;;25.10;5.30;;;;;;;;;;5057929;28;20028;-68
2022/10/23 10:14:29;;;;;;;22.55;4.68;;;;;;;;;;5060362;28;20591;-69
2022/10/23 10:17:14;;;;;;;24.02;5.10;;;;;;;;;;5056045;28;20027;-68
2022/10/23 10:19:59;;;;;;;20.17;4.20;;;;;;;;;;5062448;28;20391;-68
2022/10/23 10:22:40;;;;;;;25.75;4.43;;;;;;;;;;5065595;28;20455;-68
2022/10/23 10:25:19;;;;;;;24.45;4.80;;;;;;;;;;5062254;28;20034;-68
2022/10/23 10:27:54;;;;;;;29.70;5.38;;;;;;;;;;5060555;28;20077;-66
2022/10/23 10:30:24;;;;;;;22.85;4.78;;;;;;;;;;5064445;28;20040;-68
2022/10/23 10:33:16;;;;;;;27.80;5.05;;;;;;;;;;5058064;28;20120;-67
2022/10/23 10:35:59;;;;;;;23.02;4.43;;;;;;;;;;5058557;28;20020;-68
2022/10/23 10:38:33;;;;;;;21.85;4.60;;;;;;;;;;5060181;28;20116;-69
2022/10/23 10:41:05;;;;;;;26.07;4.03;;;;;;;;;;5058736;28;20133;-69
2022/10/23 10:43:46;;;;;;;27.20;4.20;;;;;;;;;;5047307;28;20086;-69
2022/10/23 10:46:27;;;;;;;24.30;4.78;;;;;;;;;;5063264;28;20057;-69
2022/10/23 10:49:01;;;;;;;20.00;4.25;;;;;;;;;;5056181;28;20042;-69
2022/10/23 10:51:30;;;;;;;15.88;3.63;;;;;;;;;;5059530;28;20149;-68
2022/10/23 10:54:01;;;;;;;22.05;4.43;;;;;;;;;;5060058;28;20360;-68
2022/10/23 10:56:30;;;;;;;17.90;4.32;;;;;;;;;;5057267;28;20035;-68
2022/10/23 10:59:10;;;;;;;26.48;4.55;;;;;;;;;;5057366;28;20144;-68
2022/10/23 11:01:36;;;;;;;28.75;5.20;;;;;;;;;;5058955;28;20036;-69
2022/10/23 11:04:21;;;;;;;22.05;4.43;;;;;;;;;;5057763;28;20426;-69
2022/10/23 11:06:50;;;;;;;28.05;4.95;;;;;;;;;;5053805;28;20021;-68
2022/10/23 11:09:19;;;;;;;23.13;4.40;;;;;;;;;;5063622;28;20576;-68
2022/10/23 11:11:46;;;;;;;21.58;4.70;;;;;;;;;;5062933;28;20035;-68
2022/10/23 11:14:20;;;;;;;30.88;4.97;;;;;;;;;;5061733;28;20027;-69
2022/10/23 11:17:06;;;;;;;21.63;4.78;;;;;;;;;;5054336;28;20069;-67
2022/10/23 11:19:52;;;;;;;21.75;5.00;;;;;;;;;;5047766;28;20081;-68
2022/10/23 11:22:25;;;;;;;23.55;4.28;;;;;;;;;;5040297;28;20028;-68
2022/10/23 11:56:35;;;;;;;23.05;5.30;;;;;;;;;;5026136;28;20070;-68
2022/10/23 11:59:19;;;;;;;25.58;5.00;;;;;;;;;;5062627;28;20115;-69
2022/10/23 12:01:46;;;;;;;23.83;4.78;;;;;;;;;;5053562;28;20054;-67
2022/10/23 12:04:12;;;;;;;28.50;4.90;;;;;;;;;;5056682;28;20025;-68
2022/10/23 12:06:40;;;;;;;24.42;5.18;;;;;;;;;;5061461;28;20020;-69
2022/10/23 12:09:08;;;;;;;25.75;4.80;;;;;;;;;;5065439;28;21409;-68
2022/10/23 12:11:42;;;;;;;18.38;4.50;;;;;;;;;;5063592;28;20032;-68
2022/10/23 12:14:27;;;;;;;19.52;4.78;;;;;;;;;;5067949;28;20038;-69
2022/10/23 12:16:53;;;;;;;21.15;5.50;;;;;;;;;;5057004;28;20481;-68
2022/10/23 12:19:21;;;;;;;25.83;4.85;;;;;;;;;;5064644;28;20086;-69
2022/10/23 12:21:50;;;;;;;28.35;4.82;;;;;;;;;;5064656;28;20083;-68
2022/10/23 12:24:30;;;;;;;21.38;4.55;;;;;;;;;;5063201;28;20043;-68
2022/10/23 12:27:19;;;;;;;21.02;4.55;;;;;;;;;;5056853;28;20498;-68
2022/10/23 12:29:52;;;;;;;25.38;5.05;;;;;;;;;;5060089;28;20475;-68
2022/10/23 12:32:36;;;;;;;23.90;5.07;;;;;;;;;;5068070;28;20064;-69
2022/10/23 12:35:18;;;;;;;25.67;4.88;;;;;;;;;;5056635;28;20036;-70
2022/10/23 12:37:51;;;;;;;22.73;5.15;;;;;;;;;;5059498;28;20029;-68
2022/10/23 12:40:17;;;;;;;20.63;5.10;;;;;;;;;;5075126;28;20496;-68
2022/10/23 12:42:51;;;;;;;22.35;4.88;;;;;;;;;;5068499;28;20139;-69
2022/10/23 12:45:25;;;;;;;26.15;4.75;;;;;;;;;;5060988;28;20604;-68
2022/10/23 12:47:52;;;;;;;25.52;5.05;;;;;;;;;;5066504;28;20102;-69
2022/10/23 12:50:23;;;;;;;20.13;4.57;;;;;;;;;;5070688;28;20054;-67
2022/10/23 12:53:00;;;;;;;20.00;4.88;;;;;;;;;;5068530;28;20450;-67
2022/10/23 12:55:27;;;;;;;24.65;4.45;;;;;;;;;;5066324;28;20061;-67
2022/10/23 12:57:53;;;;;;;24.70;4.65;;;;;;;;;;5055001;28;20350;-70
2022/10/23 13:00:23;;;;;;;26.17;4.40;;;;;;;;;;5056990;28;20222;-69
2022/10/23 13:03:00;;;;;;;24.05;4.47;;;;;;;;;;5057678;28;20027;-69
2022/10/23 13:05:26;;;;;;;17.50;4.20;;;;;;;;;;5064606;28;20043;-69
2022/10/23 13:07:52;;;;;;;24.63;4.20;;;;;;;;;;5064526;28;20051;-68
2022/10/23 13:10:20;;;;;;;22.45;4.32;;;;;;;;;;5068504;28;20051;-70
2022/10/23 13:12:56;;;;;;;24.25;4.45;;;;;;;;;;5065391;28;20036;-67
2022/10/23 13:15:24;;;;;;;23.90;4.25;;;;;;;;;;5068779;28;20426;-67
2022/10/23 13:17:52;;;;;;;19.13;4.35;;;;;;;;;;5070044;28;20530;-68
2022/10/23 13:20:19;;;;;;;18.45;4.15;;;;;;;;;;5072331;28;20046;-69
2022/10/23 13:22:49;;;;;;;22.30;4.50;;;;;;;;;;5068176;28;20596;-68
2022/10/23 13:25:26;;;;;;;19.70;4.60;;;;;;;;;;5068258;28;20073;-68
2022/10/23 13:28:02;;;;;;;23.13;4.55;;;;;;;;;;5064006;28;20471;-69
2022/10/23 13:30:32;;;;;;;24.80;5.20;;;;;;;;;;5077224;28;20099;-68
2022/10/23 13:32:59;;;;;;;18.98;4.45;;;;;;;;;;5065915;28;20034;-69
2022/10/23 13:35:25;;;;;;;22.58;4.10;;;;;;;;;;5069657;28;20437;-68
2022/10/23 13:37:52;;;;;;;28.90;5.15;;;;;;;;;;5066857;28;20032;-69
2022/10/23 13:40:25;;;;;;;27.95;5.03;;;;;;;;;;5071065;28;20047;-68
2022/10/23 13:42:56;;;;;;;20.60;4.55;;;;;;;;;;5062012;28;20034;-70
2022/10/23 13:45:23;;;;;;;27.73;4.38;;;;;;;;;;5070016;28;20138;-69
2022/10/23 13:47:49;;;;;;;25.60;4.63;;;;;;;;;;5065703;28;20050;-69
2022/10/23 13:50:16;;;;;;;26.10;4.20;;;;;;;;;;5072596;28;20032;-69
2022/10/23 13:52:42;;;;;;;24.38;4.85;;;;;;;;;;5065411;28;20493;-69
2022/10/23 13:55:25;;;;;;;23.17;4.55;;;;;;;;;;5073155;28;20068;-69
2022/10/23 13:57:51;;;;;;;20.92;4.25;;;;;;;;;;5050359;28;470335;-69
2022/10/23 14:00:17;;;;;;;26.15;5.38;;;;;;;;;;5071282;28;20475;-70
2022/10/23 14:02:44;;;;;;;23.50;5.03;;;;;;;;;;5070016;28;20036;-68
2022/10/23 14:05:10;;;;;;;22.33;4.88;;;;;;;;;;5078366;28;20574;-68
2022/10/23 14:07:36;;;;;;;20.70;4.97;;;;;;;;;;5078202;28;20035;-69
2022/10/23 14:10:03;;;;;;;26.20;4.35;;;;;;;;;;5070531;28;20028;-68
2022/10/23 14:12:29;;;;;;;23.40;4.65;;;;;;;;;;5070101;28;20051;-68
2022/10/23 14:14:55;;;;;;;24.92;4.78;;;;;;;;;;5067444;28;20032;-69
2022/10/23 14:17:21;;;;;;;23.50;4.53;;;;;;;;;;5070787;28;20034;-68
2022/10/23 14:19:48;;;;;;;20.90;4.43;;;;;;;;;;5063881;28;20044;-67
2022/10/23 14:22:15;;;;;;;22.48;4.45;;;;;;;;;;5068804;28;20106;-70
2022/10/23 14:24:41;;;;;;;26.83;4.82;;;;;;;;;;5064032;28;20043;-68
2022/10/23 14:27:07;;;;;;;23.15;4.47;;;;;;;;;;5070386;28;20573;-67
2022/10/23 14:29:33;;;;;;;21.73;4.32;;;;;;;;;;5071905;28;20035;-68
2022/10/23 14:31:59;;;;;;;21.05;3.95;;;;;;;;;;5060401;28;22056;-69
2022/10/23 14:34:25;;;;;;;23.20;4.63;;;;;;;;;;5066864;28;20028;-68
2022/10/23 14:37:00;;;;;;;21.73;4.63;;;;;;;;;;5066727;28;20111;-69
2022/10/23 14:39:26;;;;;;;22.38;4.43;;;;;;;;;;5069751;28;20389;-67
2022/10/23 14:41:52;;;;;;;24.42;4.60;;;;;;;;;;5058863;28;20180;-68
2022/10/23 14:44:18;;;;;;;24.70;5.30;;;;;;;;;;5069606;28;20224;-69
2022/10/23 14:46:44;;;;;;;19.20;3.70;;;;;;;;;;5063235;28;20024;-69
2022/10/23 14:49:10;;;;;;;23.52;4.38;;;;;;;;;;5066854;28;20074;-70
2022/10/23 14:51:37;;;;;;;18.75;4.40;;;;;;;;;;5067114;28;20647;-68
2022/10/23 14:54:04;;;;;;;20.10;4.07;;;;;;;;;;5067161;28;20040;-68
2022/10/23 14:56:31;;;;;;;23.02;4.97;;;;;;;;;;5066005;28;20704;-69
2022/10/23 14:59:01;;;;;;;22.27;4.72;;;;;;;;;;5068729;28;20054;-69
2022/10/23 15:01:32;;;;;;;21.20;4.40;;;;;;;;;;5072841;28;20048;-70
2022/10/23 15:03:58;;;;;;;26.70;4.65;;;;;;;;;;5067206;28;20042;-69
2022/10/23 15:06:24;;;;;;;23.27;4.47;;;;;;;;;;5066043;28;20032;-67
2022/10/23 15:08:51;;;;;;;21.65;4.18;;;;;;;;;;5068851;28;20027;-68
2022/10/23 15:11:17;;;;;;;21.38;4.40;;;;;;;;;;5074521;28;20551;-69
2022/10/23 15:13:43;;;;;;;26.23;4.63;;;;;;;;;;5062908;28;20035;-69
2022/10/23 15:16:10;;;;;;;21.92;4.57;;;;;;;;;;5078692;28;20122;-68
2022/10/23 15:18:36;;;;;;;24.70;4.68;;;;;;;;;;5075624;28;20031;-68
2022/10/23 15:21:04;;;;;;;24.83;5.18;;;;;;;;;;5062985;28;20020;-67